sensor_id;sensor_type;location;lat;lon;timestamp;temperature;humidity
70593;DHT22;58294;42.988;20.338;2023-07-13T00:00:35;512.90;2073.60
70593;DHT22;58294;42.988;20.338;2023-07-13T00:03:02;512.80;2073.60
70593;DHT22;58294;42.988;20.338;2023-07-13T00:05:28;512.80;2073.60
70593;DHT22;58294;42.988;20.338;2023-07-13T00:07:54;512.80;2073.60
70593;DHT22;58294;42.988;20.338;2023-07-13T00:10:20;512.80;2073.60
70593;DHT22;58294;42.988;20.338;2023-07-13T00:12:47;512.80;2022.40
70593;DHT22;58294;42.988;20.338;2023-07-13T00:15:17;512.70;1996.80
70593;DHT22;58294;42.988;20.338;2023-07-13T00:17:52;512.60;2022.40
70593;DHT22;58294;42.988;20.338;2023-07-13T00:20:19;512.50;2048.00
70593;DHT22;58294;42.988;20.338;2023-07-13T00:22:48;512.50;2073.60
70593;DHT22;58294;42.988;20.338;2023-07-13T00:25:14;512.40;2048.00
70593;DHT22;58294;42.988;20.338;2023-07-13T00:27:41;512.40;2022.40
70593;DHT22;58294;42.988;20.338;2023-07-13T00:30:07;512.30;2048.00
70593;DHT22;58294;42.988;20.338;2023-07-13T00:32:34;512.20;2022.40
70593;DHT22;58294;42.988;20.338;2023-07-13T00:35:01;512.20;2073.60
70593;DHT22;58294;42.988;20.338;2023-07-13T00:37:28;512.00;2022.40
70593;DHT22;58294;42.988;20.338;2023-07-13T00:39:54;512.00;2073.60
70593;DHT22;58294;42.988;20.338;2023-07-13T00:42:20;512.00;2073.60
70593;DHT22;58294;42.988;20.338;2023-07-13T00:47:47;487.20;2048.00
70593;DHT22;58294;42.988;20.338;2023-07-13T00:50:15;487.20;2176.00
70593;DHT22;58294;42.988;20.338;2023-07-13T00:52:46;487.20;2201.60
70593;DHT22;58294;42.988;20.338;2023-07-13T00:55:13;487.20;2176.00
70593;DHT22;58294;42.988;20.338;2023-07-13T00:57:40;487.10;2227.20
70593;DHT22;58294;42.988;20.338;2023-07-13T01:00:08;487.10;2227.20
70593;DHT22;58294;42.988;20.338;2023-07-13T01:02:38;487.10;2201.60
70593;DHT22;58294;42.988;20.338;2023-07-13T01:05:10;487.10;2227.20
70593;DHT22;58294;42.988;20.338;2023-07-13T01:07:36;487.10;2252.80
70593;DHT22;58294;42.988;20.338;2023-07-13T01:10:03;487.10;2278.40
70593;DHT22;58294;42.988;20.338;2023-07-13T01:12:29;487.10;2278.40
70593;DHT22;58294;42.988;20.338;2023-07-13T01:15:00;487.10;2278.40
70593;DHT22;58294;42.988;20.338;2023-07-13T01:17:29;487.10;2227.20
70593;DHT22;58294;42.988;20.338;2023-07-13T01:19:55;487.10;2227.20
70593;DHT22;58294;42.988;20.338;2023-07-13T01:22:21;487.00;2201.60
70593;DHT22;58294;42.988;20.338;2023-07-13T01:24:52;487.00;2176.00
70593;DHT22;58294;42.988;20.338;2023-07-13T01:27:23;486.90;2176.00
70593;DHT22;58294;42.988;20.338;2023-07-13T01:29:53;486.80;2150.40
70593;DHT22;58294;42.988;20.338;2023-07-13T01:32:27;486.80;2201.60
70593;DHT22;58294;42.988;20.338;2023-07-13T01:34:54;486.70;2124.80
70593;DHT22;58294;42.988;20.338;2023-07-13T01:37:21;486.70;2227.20
70593;DHT22;58294;42.988;20.338;2023-07-13T01:39:47;486.60;2227.20
70593;DHT22;58294;42.988;20.338;2023-07-13T01:42:13;486.50;2227.20
70593;DHT22;58294;42.988;20.338;2023-07-13T01:44:39;486.50;2252.80
70593;DHT22;58294;42.988;20.338;2023-07-13T01:47:05;486.50;2227.20
70593;DHT22;58294;42.988;20.338;2023-07-13T01:49:31;486.40;2304.00
70593;DHT22;58294;42.988;20.338;2023-07-13T01:51:57;486.40;2304.00
70593;DHT22;58294;42.988;20.338;2023-07-13T01:54:23;486.40;2278.40
70593;DHT22;58294;42.988;20.338;2023-07-13T01:56:49;486.40;2304.00
70593;DHT22;58294;42.988;20.338;2023-07-13T01:59:14;486.40;2278.40
70593;DHT22;58294;42.988;20.338;2023-07-13T02:01:40;461.70;2304.00
70593;DHT22;58294;42.988;20.338;2023-07-13T02:04:06;461.70;2329.60
70593;DHT22;58294;42.988;20.338;2023-07-13T02:06:32;461.60;2304.00
70593;DHT22;58294;42.988;20.338;2023-07-13T02:08:58;461.60;2278.40
70593;DHT22;58294;42.988;20.338;2023-07-13T02:11:25;461.60;2304.00
70593;DHT22;58294;42.988;20.338;2023-07-13T02:13:51;461.60;2304.00
70593;DHT22;58294;42.988;20.338;2023-07-13T02:16:17;461.50;2304.00
70593;DHT22;58294;42.988;20.338;2023-07-13T02:18:43;461.50;2355.20
70593;DHT22;58294;42.988;20.338;2023-07-13T02:21:09;461.50;2380.80
70593;DHT22;58294;42.988;20.338;2023-07-13T02:23:34;461.50;2355.20
70593;DHT22;58294;42.988;20.338;2023-07-13T02:26:03;461.50;2380.80
70593;DHT22;58294;42.988;20.338;2023-07-13T02:28:29;461.50;2355.20
70593;DHT22;58294;42.988;20.338;2023-07-13T02:30:55;461.40;2355.20
70593;DHT22;58294;42.988;20.338;2023-07-13T02:33:20;461.40;2380.80
70593;DHT22;58294;42.988;20.338;2023-07-13T02:35:46;461.30;2355.20
70593;DHT22;58294;42.988;20.338;2023-07-13T02:38:12;461.30;2380.80
70593;DHT22;58294;42.988;20.338;2023-07-13T02:40:38;461.30;2380.80
70593;DHT22;58294;42.988;20.338;2023-07-13T02:43:04;461.30;2380.80
70593;DHT22;58294;42.988;20.338;2023-07-13T02:45:29;461.30;2380.80
70593;DHT22;58294;42.988;20.338;2023-07-13T02:47:55;461.30;2380.80
70593;DHT22;58294;42.988;20.338;2023-07-13T02:50:21;461.30;2355.20
70593;DHT22;58294;42.988;20.338;2023-07-13T02:52:47;461.20;2355.20
70593;DHT22;58294;42.988;20.338;2023-07-13T02:55:13;461.20;2380.80
70593;DHT22;58294;42.988;20.338;2023-07-13T02:57:38;461.20;2380.80
70593;DHT22;58294;42.988;20.338;2023-07-13T03:00:05;461.20;2355.20
70593;DHT22;58294;42.988;20.338;2023-07-13T03:02:31;461.20;2380.80
70593;DHT22;58294;42.988;20.338;2023-07-13T03:04:58;461.20;2380.80
70593;DHT22;58294;42.988;20.338;2023-07-13T03:07:24;461.10;2355.20
70593;DHT22;58294;42.988;20.338;2023-07-13T03:10:00;461.10;2329.60
70593;DHT22;58294;42.988;20.338;2023-07-13T03:12:25;461.10;2278.40
70593;DHT22;58294;42.988;20.338;2023-07-13T03:14:51;461.00;2380.80
70593;DHT22;58294;42.988;20.338;2023-07-13T03:17:17;461.00;2380.80
70593;DHT22;58294;42.988;20.338;2023-07-13T03:19:43;461.00;2380.80
70593;DHT22;58294;42.988;20.338;2023-07-13T03:22:09;461.00;2380.80
70593;DHT22;58294;42.988;20.338;2023-07-13T03:24:35;460.90;2380.80
70593;DHT22;58294;42.988;20.338;2023-07-13T03:27:04;460.90;2380.80
70593;DHT22;58294;42.988;20.338;2023-07-13T03:29:30;460.90;2380.80
70593;DHT22;58294;42.988;20.338;2023-07-13T03:31:56;460.90;2380.80
70593;DHT22;58294;42.988;20.338;2023-07-13T03:34:22;460.90;2380.80
70593;DHT22;58294;42.988;20.338;2023-07-13T03:36:48;460.90;2380.80
70593;DHT22;58294;42.988;20.338;2023-07-13T03:39:13;460.90;2380.80
70593;DHT22;58294;42.988;20.338;2023-07-13T03:41:39;460.90;2380.80
70593;DHT22;58294;42.988;20.338;2023-07-13T03:44:05;460.90;2380.80
70593;DHT22;58294;42.988;20.338;2023-07-13T03:46:32;460.80;2380.80
70593;DHT22;58294;42.988;20.338;2023-07-13T03:48:59;460.80;2380.80
70593;DHT22;58294;42.988;20.338;2023-07-13T03:51:25;460.80;2380.80
70593;DHT22;58294;42.988;20.338;2023-07-13T03:53:51;460.80;2380.80
70593;DHT22;58294;42.988;20.338;2023-07-13T03:56:18;460.90;2380.80
70593;DHT22;58294;42.988;20.338;2023-07-13T03:58:46;460.90;2380.80
70593;DHT22;58294;42.988;20.338;2023-07-13T04:01:13;460.90;2380.80
70593;DHT22;58294;42.988;20.338;2023-07-13T04:03:40;460.90;2380.80
70593;DHT22;58294;42.988;20.338;2023-07-13T04:06:08;460.90;2380.80
70593;DHT22;58294;42.988;20.338;2023-07-13T04:08:40;460.90;2380.80
70593;DHT22;58294;42.988;20.338;2023-07-13T04:11:07;460.90;2380.80
70593;DHT22;58294;42.988;20.338;2023-07-13T04:13:33;460.90;2380.80
70593;DHT22;58294;42.988;20.338;2023-07-13T04:15:58;461.00;2380.80
70593;DHT22;58294;42.988;20.338;2023-07-13T04:18:24;461.00;2380.80
70593;DHT22;58294;42.988;20.338;2023-07-13T04:20:50;460.90;2380.80
70593;DHT22;58294;42.988;20.338;2023-07-13T04:23:17;460.90;2380.80
70593;DHT22;58294;42.988;20.338;2023-07-13T04:25:46;460.90;2380.80
70593;DHT22;58294;42.988;20.338;2023-07-13T04:28:17;460.90;2380.80
70593;DHT22;58294;42.988;20.338;2023-07-13T04:30:43;460.90;2380.80
70593;DHT22;58294;42.988;20.338;2023-07-13T04:33:09;461.00;2380.80
70593;DHT22;58294;42.988;20.338;2023-07-13T04:35:35;461.00;2380.80
70593;DHT22;58294;42.988;20.338;2023-07-13T04:38:01;461.10;2380.80
70593;DHT22;58294;42.988;20.338;2023-07-13T04:40:28;461.10;2380.80
70593;DHT22;58294;42.988;20.338;2023-07-13T04:42:54;461.20;2380.80
70593;DHT22;58294;42.988;20.338;2023-07-13T04:45:20;461.20;2380.80
70593;DHT22;58294;42.988;20.338;2023-07-13T04:47:46;461.30;2380.80
70593;DHT22;58294;42.988;20.338;2023-07-13T04:50:13;461.30;2380.80
70593;DHT22;58294;42.988;20.338;2023-07-13T04:52:44;461.40;2380.80
70593;DHT22;58294;42.988;20.338;2023-07-13T04:55:10;461.50;2380.80
70593;DHT22;58294;42.988;20.338;2023-07-13T04:57:36;461.60;2380.80
70593;DHT22;58294;42.988;20.338;2023-07-13T05:00:03;461.60;2380.80
70593;DHT22;58294;42.988;20.338;2023-07-13T05:02:31;486.40;2380.80
70593;DHT22;58294;42.988;20.338;2023-07-13T05:04:59;486.40;2380.80
70593;DHT22;58294;42.988;20.338;2023-07-13T05:07:25;486.50;2380.80
70593;DHT22;58294;42.988;20.338;2023-07-13T05:09:51;486.60;2380.80
70593;DHT22;58294;42.988;20.338;2023-07-13T05:12:17;486.60;2380.80
70593;DHT22;58294;42.988;20.338;2023-07-13T05:14:43;486.70;2380.80
70593;DHT22;58294;42.988;20.338;2023-07-13T05:17:09;486.80;2380.80
70593;DHT22;58294;42.988;20.338;2023-07-13T05:19:35;486.80;2380.80
70593;DHT22;58294;42.988;20.338;2023-07-13T05:22:01;486.90;2380.80
70593;DHT22;58294;42.988;20.338;2023-07-13T05:24:28;487.00;2380.80
70593;DHT22;58294;42.988;20.338;2023-07-13T05:26:54;487.10;2380.80
70593;DHT22;58294;42.988;20.338;2023-07-13T05:29:20;487.10;2380.80
70593;DHT22;58294;42.988;20.338;2023-07-13T05:31:47;487.10;2380.80
70593;DHT22;58294;42.988;20.338;2023-07-13T05:34:13;487.20;2380.80
70593;DHT22;58294;42.988;20.338;2023-07-13T05:36:39;487.30;2380.80
70593;DHT22;58294;42.988;20.338;2023-07-13T05:39:05;512.00;2380.80
70593;DHT22;58294;42.988;20.338;2023-07-13T05:41:31;512.00;2380.80
70593;DHT22;58294;42.988;20.338;2023-07-13T05:43:56;512.00;2380.80
70593;DHT22;58294;42.988;20.338;2023-07-13T05:46:22;512.10;2380.80
70593;DHT22;58294;42.988;20.338;2023-07-13T05:48:48;512.20;2380.80
70593;DHT22;58294;42.988;20.338;2023-07-13T05:51:14;512.30;2380.80
70593;DHT22;58294;42.988;20.338;2023-07-13T05:53:40;512.40;2380.80
70593;DHT22;58294;42.988;20.338;2023-07-13T05:56:05;512.50;2380.80
70593;DHT22;58294;42.988;20.338;2023-07-13T05:58:31;512.70;2380.80
70593;DHT22;58294;42.988;20.338;2023-07-13T06:01:02;512.80;2380.80
70593;DHT22;58294;42.988;20.338;2023-07-13T06:03:29;537.60;2406.40
70593;DHT22;58294;42.988;20.338;2023-07-13T06:05:55;537.70;2406.40
70593;DHT22;58294;42.988;20.338;2023-07-13T06:08:20;537.70;2406.40
70593;DHT22;58294;42.988;20.338;2023-07-13T06:10:46;537.90;2406.40
70593;DHT22;58294;42.988;20.338;2023-07-13T06:13:12;538.00;2355.20
70593;DHT22;58294;42.988;20.338;2023-07-13T06:15:38;538.10;2355.20
70593;DHT22;58294;42.988;20.338;2023-07-13T06:18:03;538.10;2329.60
70593;DHT22;58294;42.988;20.338;2023-07-13T06:20:29;538.30;2329.60
70593;DHT22;58294;42.988;20.338;2023-07-13T06:22:55;538.40;2304.00
70593;DHT22;58294;42.988;20.338;2023-07-13T06:25:21;538.50;2252.80
70593;DHT22;58294;42.988;20.338;2023-07-13T06:27:47;563.30;2252.80
70593;DHT22;58294;42.988;20.338;2023-07-13T06:30:13;563.30;2227.20
70593;DHT22;58294;42.988;20.338;2023-07-13T06:32:39;563.40;2227.20
70593;DHT22;58294;42.988;20.338;2023-07-13T06:35:05;563.50;2176.00
70593;DHT22;58294;42.988;20.338;2023-07-13T06:37:34;563.70;2124.80
70593;DHT22;58294;42.988;20.338;2023-07-13T06:40:00;563.70;2048.00
70593;DHT22;58294;42.988;20.338;2023-07-13T06:42:25;563.90;2124.80
70593;DHT22;58294;42.988;20.338;2023-07-13T06:44:51;564.00;2099.20
70593;DHT22;58294;42.988;20.338;2023-07-13T06:47:17;588.80;2048.00
70593;DHT22;58294;42.988;20.338;2023-07-13T06:49:43;588.80;2048.00
70593;DHT22;58294;42.988;20.338;2023-07-13T06:52:08;588.90;2022.40
70593;DHT22;58294;42.988;20.338;2023-07-13T06:54:35;589.00;1996.80
70593;DHT22;58294;42.988;20.338;2023-07-13T06:57:00;589.20;1971.20
70593;DHT22;58294;42.988;20.338;2023-07-13T06:59:28;589.30;1971.20
70593;DHT22;58294;42.988;20.338;2023-07-13T07:01:55;589.50;1971.20
70593;DHT22;58294;42.988;20.338;2023-07-13T07:04:21;589.60;1920.00
70593;DHT22;58294;42.988;20.338;2023-07-13T07:06:47;589.70;1920.00
70593;DHT22;58294;42.988;20.338;2023-07-13T07:09:13;614.40;1868.80
70593;DHT22;58294;42.988;20.338;2023-07-13T07:11:39;614.50;1868.80
70593;DHT22;58294;42.988;20.338;2023-07-13T07:14:05;614.60;1894.40
70593;DHT22;58294;42.988;20.338;2023-07-13T07:16:30;614.80;1868.80
70593;DHT22;58294;42.988;20.338;2023-07-13T07:19:00;614.90;1817.60
70593;DHT22;58294;42.988;20.338;2023-07-13T07:21:26;614.90;1792.00
70593;DHT22;58294;42.988;20.338;2023-07-13T07:23:53;615.00;1740.80
70593;DHT22;58294;42.988;20.338;2023-07-13T07:26:19;615.10;1740.80
70593;DHT22;58294;42.988;20.338;2023-07-13T07:28:48;615.30;1689.60
70593;DHT22;58294;42.988;20.338;2023-07-13T07:31:14;640.10;1740.80
70593;DHT22;58294;42.988;20.338;2023-07-13T07:33:44;640.20;1664.00
70593;DHT22;58294;42.988;20.338;2023-07-13T07:36:17;640.30;1638.40
70593;DHT22;58294;42.988;20.338;2023-07-13T07:38:43;640.50;1612.80
70593;DHT22;58294;42.988;20.338;2023-07-13T07:41:09;640.60;1587.20
70593;DHT22;58294;42.988;20.338;2023-07-13T07:43:36;640.70;1587.20
70593;DHT22;58294;42.988;20.338;2023-07-13T07:46:02;640.80;1561.60
70593;DHT22;58294;42.988;20.338;2023-07-13T07:48:28;665.60;1561.60
70593;DHT22;58294;42.988;20.338;2023-07-13T07:50:54;665.70;1587.20
70593;DHT22;58294;42.988;20.338;2023-07-13T07:53:19;665.90;1561.60
70593;DHT22;58294;42.988;20.338;2023-07-13T07:55:45;666.10;1561.60
70593;DHT22;58294;42.988;20.338;2023-07-13T07:58:11;666.30;1587.20
70593;DHT22;58294;42.988;20.338;2023-07-13T08:00:37;666.40;1587.20
70593;DHT22;58294;42.988;20.338;2023-07-13T08:03:03;691.30;1536.00
70593;DHT22;58294;42.988;20.338;2023-07-13T08:05:29;691.50;1536.00
70593;DHT22;58294;42.988;20.338;2023-07-13T08:07:55;691.80;1561.60
70593;DHT22;58294;42.988;20.338;2023-07-13T08:10:20;691.90;1536.00
70593;DHT22;58294;42.988;20.338;2023-07-13T08:12:46;692.00;1510.40
70593;DHT22;58294;42.988;20.338;2023-07-13T08:15:14;716.90;1536.00
70593;DHT22;58294;42.988;20.338;2023-07-13T08:20:07;717.50;1638.40
70593;DHT22;58294;42.988;20.338;2023-07-13T08:54:37;768.70;1408.00
70593;DHT22;58294;42.988;20.338;2023-07-13T08:57:15;768.70;1382.40
70593;DHT22;58294;42.988;20.338;2023-07-13T08:59:43;768.70;1356.80
70593;DHT22;58294;42.988;20.338;2023-07-13T09:02:53;768.80;1382.40
70593;DHT22;58294;42.988;20.338;2023-07-13T09:05:32;768.90;1382.40
70593;DHT22;58294;42.988;20.338;2023-07-13T09:08:42;793.60;1331.20
70593;DHT22;58294;42.988;20.338;2023-07-13T09:13:56;793.80;1280.00
70593;DHT22;58294;42.988;20.338;2023-07-13T09:18:54;794.10;1280.00
70593;DHT22;58294;42.988;20.338;2023-07-13T09:24:17;794.30;1280.00
70593;DHT22;58294;42.988;20.338;2023-07-13T09:26:47;794.30;1203.20
70593;DHT22;58294;42.988;20.338;2023-07-13T09:29:25;794.50;1152.00
70593;DHT22;58294;42.988;20.338;2023-07-13T09:31:55;819.20;1203.20
70593;DHT22;58294;42.988;20.338;2023-07-13T09:36:50;819.40;1152.00
70593;DHT22;58294;42.988;20.338;2023-07-13T09:39:28;819.60;1152.00
70593;DHT22;58294;42.988;20.338;2023-07-13T09:44:59;819.70;1177.60
70593;DHT22;58294;42.988;20.338;2023-07-13T09:47:28;819.80;1152.00
70593;DHT22;58294;42.988;20.338;2023-07-13T09:50:08;819.80;1152.00
70593;DHT22;58294;42.988;20.338;2023-07-13T09:52:48;819.90;1177.60
70593;DHT22;58294;42.988;20.338;2023-07-13T09:55:27;819.90;1177.60
70593;DHT22;58294;42.988;20.338;2023-07-13T09:57:54;820.00;1152.00
70593;DHT22;58294;42.988;20.338;2023-07-13T10:03:19;845.00;1203.20
70593;DHT22;58294;42.988;20.338;2023-07-13T10:05:47;845.00;1203.20
70593;DHT22;58294;42.988;20.338;2023-07-13T10:08:35;845.00;1126.40
70593;DHT22;58294;42.988;20.338;2023-07-13T10:21:20;845.50;1152.00
70593;DHT22;58294;42.988;20.338;2023-07-13T10:23:54;845.40;1126.40
70593;DHT22;58294;42.988;20.338;2023-07-13T10:26:27;845.50;1100.80
70593;DHT22;58294;42.988;20.338;2023-07-13T10:29:00;845.50;1152.00
70593;DHT22;58294;42.988;20.338;2023-07-13T10:31:27;845.50;1126.40
70593;DHT22;58294;42.988;20.338;2023-07-13T10:33:53;845.50;1126.40
70593;DHT22;58294;42.988;20.338;2023-07-13T10:36:28;845.70;1100.80
70593;DHT22;58294;42.988;20.338;2023-07-13T10:38:57;870.40;1100.80
70593;DHT22;58294;42.988;20.338;2023-07-13T10:43:54;896.10;1382.40
70593;DHT22;58294;42.988;20.338;2023-07-13T11:04:00;1126.60;896.00
70593;DHT22;58294;42.988;20.338;2023-07-13T11:09:17;1127.20;665.60
70593;DHT22;58294;42.988;20.338;2023-07-13T11:14:42;1152.20;614.40
70593;DHT22;58294;42.988;20.338;2023-07-13T11:19:52;1127.10;640.00
70593;DHT22;58294;42.988;20.338;2023-07-13T11:22:24;1127.10;640.00
70593;DHT22;58294;42.988;20.338;2023-07-13T11:24:59;1152.80;640.00
70593;DHT22;58294;42.988;20.338;2023-07-13T11:32:36;1177.90;614.40
70593;DHT22;58294;42.988;20.338;2023-07-13T11:35:03;1178.10;614.40
70593;DHT22;58294;42.988;20.338;2023-07-13T11:39:55;1178.40;563.20
70593;DHT22;58294;42.988;20.338;2023-07-13T11:44:49;1203.30;563.20
70593;DHT22;58294;42.988;20.338;2023-07-13T11:47:20;1203.20;537.60
70593;DHT22;58294;42.988;20.338;2023-07-13T11:49:51;1203.30;512.00
70593;DHT22;58294;42.988;20.338;2023-07-13T11:52:21;1178.40;537.60
70593;DHT22;58294;42.988;20.338;2023-07-13T11:59:51;1228.80;537.60
70593;DHT22;58294;42.988;20.338;2023-07-13T12:02:39;1204.00;486.40
70593;DHT22;58294;42.988;20.338;2023-07-13T12:05:13;1204.00;512.00
70593;DHT22;58294;42.988;20.338;2023-07-13T12:12:37;1228.80;486.40
70593;DHT22;58294;42.988;20.338;2023-07-13T12:15:10;1228.90;486.40
70593;DHT22;58294;42.988;20.338;2023-07-13T12:20:24;1229.10;486.40
70593;DHT22;58294;42.988;20.338;2023-07-13T12:22:51;1229.40;486.40
70593;DHT22;58294;42.988;20.338;2023-07-13T12:25:18;1229.10;486.40
70593;DHT22;58294;42.988;20.338;2023-07-13T12:27:51;1228.80;512.00
70593;DHT22;58294;42.988;20.338;2023-07-13T12:30:31;1228.90;512.00
70593;DHT22;58294;42.988;20.338;2023-07-13T12:33:24;1204.00;512.00
70593;DHT22;58294;42.988;20.338;2023-07-13T12:35:52;1229.30;486.40
70593;DHT22;58294;42.988;20.338;2023-07-13T12:38:18;1228.90;486.40
70593;DHT22;58294;42.988;20.338;2023-07-13T12:40:49;1229.00;486.40
70593;DHT22;58294;42.988;20.338;2023-07-13T12:43:16;1229.10;486.40
70593;DHT22;58294;42.988;20.338;2023-07-13T12:46:21;1229.00;486.40
70593;DHT22;58294;42.988;20.338;2023-07-13T12:48:51;1229.10;512.00
70593;DHT22;58294;42.988;20.338;2023-07-13T12:51:21;1229.00;460.80
70593;DHT22;58294;42.988;20.338;2023-07-13T12:53:49;1229.00;486.40
70593;DHT22;58294;42.988;20.338;2023-07-13T12:56:24;1229.00;512.00
70593;DHT22;58294;42.988;20.338;2023-07-13T12:59:03;1229.50;486.40
70593;DHT22;58294;42.988;20.338;2023-07-13T13:01:34;1229.50;486.40
70593;DHT22;58294;42.988;20.338;2023-07-13T13:04:03;1229.60;460.80
70593;DHT22;58294;42.988;20.338;2023-07-13T13:06:34;1229.40;460.80
70593;DHT22;58294;42.988;20.338;2023-07-13T13:09:11;1229.40;460.80
70593;DHT22;58294;42.988;20.338;2023-07-13T13:11:37;1229.10;460.80
70593;DHT22;58294;42.988;20.338;2023-07-13T13:14:03;1229.10;460.80
70593;DHT22;58294;42.988;20.338;2023-07-13T13:16:32;1228.80;460.80
70593;DHT22;58294;42.988;20.338;2023-07-13T13:19:21;1203.90;435.20
70593;DHT22;58294;42.988;20.338;2023-07-13T13:21:48;1204.00;435.20
70593;DHT22;58294;42.988;20.338;2023-07-13T13:24:20;1203.70;435.20
70593;DHT22;58294;42.988;20.338;2023-07-13T13:26:47;1203.50;435.20
70593;DHT22;58294;42.988;20.338;2023-07-13T13:41:32;1101.20;435.20
70593;DHT22;58294;42.988;20.338;2023-07-13T13:43:57;1075.90;435.20
70593;DHT22;58294;42.988;20.338;2023-07-13T13:48:51;1050.40;460.80
70593;DHT22;58294;42.988;20.338;2023-07-13T13:51:21;1049.90;512.00
70593;DHT22;58294;42.988;20.338;2023-07-13T13:53:49;1024.70;512.00
70593;DHT22;58294;42.988;20.338;2023-07-13T13:58:41;1024.00;537.60
70593;DHT22;58294;42.988;20.338;2023-07-13T14:01:21;999.20;563.20
70593;DHT22;58294;42.988;20.338;2023-07-13T14:03:50;998.90;563.20
70593;DHT22;58294;42.988;20.338;2023-07-13T14:08:43;998.40;563.20
70593;DHT22;58294;42.988;20.338;2023-07-13T14:11:20;973.70;537.60
70593;DHT22;58294;42.988;20.338;2023-07-13T14:16:18;973.20;563.20
70593;DHT22;58294;42.988;20.338;2023-07-13T14:18:45;972.90;563.20
70593;DHT22;58294;42.988;20.338;2023-07-13T14:21:19;972.80;588.80
70593;DHT22;58294;42.988;20.338;2023-07-13T14:23:47;948.10;563.20
70593;DHT22;58294;42.988;20.338;2023-07-13T14:26:23;948.00;588.80
70593;DHT22;58294;42.988;20.338;2023-07-13T14:28:52;947.80;588.80
70593;DHT22;58294;42.988;20.338;2023-07-13T14:31:19;947.60;588.80
70593;DHT22;58294;42.988;20.338;2023-07-13T14:33:45;947.50;588.80
70593;DHT22;58294;42.988;20.338;2023-07-13T14:36:39;947.50;614.40
70593;DHT22;58294;42.988;20.338;2023-07-13T14:39:21;947.40;614.40
70593;DHT22;58294;42.988;20.338;2023-07-13T14:41:54;947.20;614.40
70593;DHT22;58294;42.988;20.338;2023-07-13T14:44:38;947.20;614.40
70593;DHT22;58294;42.988;20.338;2023-07-13T14:47:05;922.50;614.40
70593;DHT22;58294;42.988;20.338;2023-07-13T14:49:41;922.50;614.40
70593;DHT22;58294;42.988;20.338;2023-07-13T14:52:16;922.30;614.40
70593;DHT22;58294;42.988;20.338;2023-07-13T14:54:42;922.10;614.40
70593;DHT22;58294;42.988;20.338;2023-07-13T14:57:14;922.00;614.40
70593;DHT22;58294;42.988;20.338;2023-07-13T14:59:40;921.90;640.00
70593;DHT22;58294;42.988;20.338;2023-07-13T15:02:32;921.70;640.00
70593;DHT22;58294;42.988;20.338;2023-07-13T15:04:59;921.60;640.00
70593;DHT22;58294;42.988;20.338;2023-07-13T15:07:25;921.60;640.00
70593;DHT22;58294;42.988;20.338;2023-07-13T15:09:51;896.90;640.00
70593;DHT22;58294;42.988;20.338;2023-07-13T15:12:17;896.90;640.00
70593;DHT22;58294;42.988;20.338;2023-07-13T15:14:43;896.80;640.00
70593;DHT22;58294;42.988;20.338;2023-07-13T15:19:52;896.60;640.00
70593;DHT22;58294;42.988;20.338;2023-07-13T15:22:18;896.50;640.00
70593;DHT22;58294;42.988;20.338;2023-07-13T15:24:45;896.40;640.00
70593;DHT22;58294;42.988;20.338;2023-07-13T15:27:13;896.50;614.40
70593;DHT22;58294;42.988;20.338;2023-07-13T15:29:39;896.30;614.40
70593;DHT22;58294;42.988;20.338;2023-07-13T15:32:17;896.00;640.00
70593;DHT22;58294;42.988;20.338;2023-07-13T15:34:44;896.00;614.40
70593;DHT22;58294;42.988;20.338;2023-07-13T15:37:15;871.20;640.00
70593;DHT22;58294;42.988;20.338;2023-07-13T15:39:46;871.20;640.00
70593;DHT22;58294;42.988;20.338;2023-07-13T15:42:20;871.10;665.60
70593;DHT22;58294;42.988;20.338;2023-07-13T15:44:48;871.10;665.60
70593;DHT22;58294;42.988;20.338;2023-07-13T15:47:14;870.90;665.60
70593;DHT22;58294;42.988;20.338;2023-07-13T15:49:41;870.90;665.60
70593;DHT22;58294;42.988;20.338;2023-07-13T15:52:33;870.80;665.60
70593;DHT22;58294;42.988;20.338;2023-07-13T15:55:00;870.70;614.40
70593;DHT22;58294;42.988;20.338;2023-07-13T15:57:26;870.70;665.60
70593;DHT22;58294;42.988;20.338;2023-07-13T15:59:52;870.80;640.00
70593;DHT22;58294;42.988;20.338;2023-07-13T16:02:20;870.60;614.40
70593;DHT22;58294;42.988;20.338;2023-07-13T16:04:46;870.60;640.00
70593;DHT22;58294;42.988;20.338;2023-07-13T16:07:14;870.40;665.60
70593;DHT22;58294;42.988;20.338;2023-07-13T16:09:43;870.50;691.20
70593;DHT22;58294;42.988;20.338;2023-07-13T16:12:13;870.40;640.00
70593;DHT22;58294;42.988;20.338;2023-07-13T16:14:40;870.40;640.00
70593;DHT22;58294;42.988;20.338;2023-07-13T16:17:10;845.70;640.00
70593;DHT22;58294;42.988;20.338;2023-07-13T16:19:36;845.60;640.00
70593;DHT22;58294;42.988;20.338;2023-07-13T16:22:02;845.50;640.00
70593;DHT22;58294;42.988;20.338;2023-07-13T16:24:31;845.40;665.60
70593;DHT22;58294;42.988;20.338;2023-07-13T16:26:57;845.40;665.60
70593;DHT22;58294;42.988;20.338;2023-07-13T16:29:28;845.30;691.20
70593;DHT22;58294;42.988;20.338;2023-07-13T16:34:32;845.10;691.20
70593;DHT22;58294;42.988;20.338;2023-07-13T16:37:00;845.00;691.20
70593;DHT22;58294;42.988;20.338;2023-07-13T16:39:27;845.00;716.80
70593;DHT22;58294;42.988;20.338;2023-07-13T16:41:54;844.90;716.80
70593;DHT22;58294;42.988;20.338;2023-07-13T16:44:22;844.90;716.80
70593;DHT22;58294;42.988;20.338;2023-07-13T16:46:53;844.80;742.40
70593;DHT22;58294;42.988;20.338;2023-07-13T16:49:30;844.80;768.00
70593;DHT22;58294;42.988;20.338;2023-07-13T16:51:57;844.80;742.40
70593;DHT22;58294;42.988;20.338;2023-07-13T16:54:29;820.10;716.80
70593;DHT22;58294;42.988;20.338;2023-07-13T16:56:57;819.90;742.40
70593;DHT22;58294;42.988;20.338;2023-07-13T16:59:32;819.80;768.00
70593;DHT22;58294;42.988;20.338;2023-07-13T17:01:59;819.80;742.40
70593;DHT22;58294;42.988;20.338;2023-07-13T17:04:26;819.70;742.40
70593;DHT22;58294;42.988;20.338;2023-07-13T17:06:53;819.70;742.40
70593;DHT22;58294;42.988;20.338;2023-07-13T17:09:21;819.50;768.00